AAL1549 KSAN-KLAX
Flight info
| Callsign | AAL1549 |
|---|---|
| Flight time | 0h 26m |
| Altitude | 10000 |
| Route | CWARD2 SLI |
| Aircraft | A20N/M-SDE2E3FGHIRWXY/LB1 |
Departure
| Time | 2026-04-25 19:24 |
|---|---|
| Airport | San Diego International Airport (KSAN) |
Arrival
| Time | 2026-04-25 19:50 |
|---|---|
| Airport | Los Angeles International Airport (KLAX) |
| Time | Latitude | Longitude | Altitude | Speed | Heading |
|---|---|---|---|---|---|
| 2026-04-25 19:09 | 32.73289 | -117.19562 | 24 ft | 0 kts | 282° |
| 2026-04-25 19:13 | 32.73287 | -117.19547 | 28 ft | 1 kts | 283° |
| 2026-04-25 19:14 | 32.73276 | -117.19516 | 27 ft | 4 kts | 321° |
| 2026-04-25 19:14 | 32.73268 | -117.19510 | 26 ft | 0 kts | 347° |
| 2026-04-25 19:17 | 32.73280 | -117.19495 | 25 ft | 7 kts | 46° |
| 2026-04-25 19:17 | 32.73341 | -117.19378 | 25 ft | 26 kts | 80° |
| 2026-04-25 19:17 | 32.73285 | -117.19105 | 27 ft | 42 kts | 107° |
| 2026-04-25 19:18 | 32.73197 | -117.18743 | 27 ft | 47 kts | 106° |
| 2026-04-25 19:18 | 32.73109 | -117.18372 | 25 ft | 39 kts | 108° |
| 2026-04-25 19:18 | 32.73062 | -117.18177 | 21 ft | 20 kts | 105° |
| 2026-04-25 19:18 | 32.73015 | -117.18036 | 20 ft | 18 kts | 135° |
| 2026-04-25 19:19 | 32.72963 | -117.17990 | 20 ft | 0 kts | 144° |
| 2026-04-25 19:20 | 32.72946 | -117.17976 | 20 ft | 6 kts | 145° |
| 2026-04-25 19:20 | 32.72894 | -117.17929 | 20 ft | 12 kts | 133° |
| 2026-04-25 19:20 | 32.72888 | -117.17850 | 21 ft | 10 kts | 73° |
| 2026-04-25 19:20 | 32.72918 | -117.17757 | 19 ft | 14 kts | 65° |
| 2026-04-25 19:21 | 32.72961 | -117.17645 | 22 ft | 15 kts | 70° |
| 2026-04-25 19:21 | 32.73036 | -117.17651 | 21 ft | 0 kts | 285° |
| 2026-04-25 19:23 | 32.73096 | -117.17898 | 20 ft | 66 kts | 285° |
| 2026-04-25 19:24 | 32.73281 | -117.18657 | 25 ft | 123 kts | 286° |
| 2026-04-25 19:24 | 32.73526 | -117.19727 | 395 ft | 133 kts | 283° |
| 2026-04-25 19:24 | 32.74489 | -117.21832 | 1412 ft | 157 kts | 299° |
| 2026-04-25 19:25 | 32.75802 | -117.24237 | 2467 ft | 194 kts | 301° |
| 2026-04-25 19:25 | 32.76581 | -117.25645 | 2958 ft | 214 kts | 301° |
| 2026-04-25 19:25 | 32.77437 | -117.27218 | 3465 ft | 237 kts | 301° |
| 2026-04-25 19:26 | 32.78364 | -117.28938 | 4066 ft | 255 kts | 301° |
| 2026-04-25 19:26 | 32.79331 | -117.30733 | 4981 ft | 259 kts | 301° |
| 2026-04-25 19:26 | 32.80371 | -117.32506 | 5922 ft | 263 kts | 306° |
| 2026-04-25 19:26 | 32.81503 | -117.34243 | 6814 ft | 268 kts | 306° |
| 2026-04-25 19:27 | 32.82655 | -117.36013 | 7718 ft | 272 kts | 305° |
| 2026-04-25 19:27 | 32.83425 | -117.37198 | 8368 ft | 273 kts | 304° |
| 2026-04-25 19:27 | 32.84990 | -117.39615 | 9465 ft | 278 kts | 303° |
| 2026-04-25 19:27 | 32.86175 | -117.41450 | 9808 ft | 280 kts | 302° |
| 2026-04-25 19:28 | 32.87347 | -117.43267 | 9946 ft | 281 kts | 302° |
| 2026-04-25 19:28 | 32.88534 | -117.45112 | 9988 ft | 281 kts | 302° |
| 2026-04-25 19:28 | 32.89728 | -117.46968 | 9984 ft | 287 kts | 302° |
| 2026-04-25 19:28 | 32.91002 | -117.48967 | 9992 ft | 318 kts | 303° |
| 2026-04-25 19:29 | 32.92362 | -117.51091 | 9978 ft | 320 kts | 303° |
| 2026-04-25 19:29 | 32.93689 | -117.53139 | 9979 ft | 304 kts | 303° |
| 2026-04-25 19:29 | 32.94943 | -117.55075 | 9980 ft | 287 kts | 302° |
| 2026-04-25 19:29 | 32.96130 | -117.56916 | 9983 ft | 278 kts | 302° |
| 2026-04-25 19:30 | 32.97313 | -117.58770 | 9984 ft | 282 kts | 302° |
| 2026-04-25 19:30 | 32.98499 | -117.60630 | 9982 ft | 281 kts | 302° |
| 2026-04-25 19:30 | 32.99683 | -117.62484 | 9981 ft | 281 kts | 302° |
| 2026-04-25 19:30 | 33.00873 | -117.64345 | 9982 ft | 282 kts | 302° |
| 2026-04-25 19:31 | 33.02040 | -117.66171 | 9978 ft | 282 kts | 302° |
| 2026-04-25 19:31 | 33.03229 | -117.68031 | 9981 ft | 282 kts | 302° |
| 2026-04-25 19:31 | 33.04420 | -117.69895 | 9975 ft | 282 kts | 302° |
| 2026-04-25 19:31 | 33.05608 | -117.71754 | 9981 ft | 282 kts | 302° |
| 2026-04-25 19:32 | 33.06924 | -117.73511 | 9973 ft | 286 kts | 312° |
| 2026-04-25 19:32 | 33.08448 | -117.75060 | 9982 ft | 288 kts | 315° |
| 2026-04-25 19:32 | 33.09977 | -117.76602 | 9975 ft | 287 kts | 314° |
| 2026-04-25 19:32 | 33.10985 | -117.77625 | 9978 ft | 288 kts | 314° |
| 2026-04-25 19:33 | 33.13028 | -117.79703 | 9975 ft | 288 kts | 314° |
| 2026-04-25 19:33 | 33.14552 | -117.81255 | 9982 ft | 287 kts | 314° |
| 2026-04-25 19:33 | 33.16051 | -117.82783 | 9971 ft | 288 kts | 314° |
| 2026-04-25 19:33 | 33.17575 | -117.84337 | 9980 ft | 288 kts | 314° |
| 2026-04-25 19:34 | 33.19203 | -117.85747 | 9975 ft | 293 kts | 327° |
| 2026-04-25 19:34 | 33.21117 | -117.86644 | 9975 ft | 299 kts | 342° |
| 2026-04-25 19:34 | 33.23163 | -117.87142 | 9976 ft | 300 kts | 344° |
| 2026-04-25 19:34 | 33.25208 | -117.87638 | 9977 ft | 300 kts | 344° |
| 2026-04-25 19:35 | 33.27254 | -117.88144 | 9981 ft | 299 kts | 343° |
| 2026-04-25 19:35 | 33.29304 | -117.88654 | 9977 ft | 300 kts | 343° |
| 2026-04-25 19:35 | 33.31350 | -117.89164 | 9973 ft | 299 kts | 343° |
| 2026-04-25 19:35 | 33.33385 | -117.89672 | 9972 ft | 299 kts | 343° |
| 2026-04-25 19:36 | 33.35390 | -117.90298 | 9971 ft | 297 kts | 338° |
| 2026-04-25 19:36 | 33.37366 | -117.91038 | 9973 ft | 297 kts | 338° |
| 2026-04-25 19:36 | 33.39336 | -117.91783 | 9974 ft | 297 kts | 338° |
| 2026-04-25 19:36 | 33.41301 | -117.92527 | 9879 ft | 295 kts | 338° |
| 2026-04-25 19:37 | 33.43231 | -117.93256 | 9594 ft | 294 kts | 338° |
| 2026-04-25 19:37 | 33.45172 | -117.93989 | 9280 ft | 291 kts | 338° |
| 2026-04-25 19:37 | 33.47098 | -117.94715 | 8909 ft | 289 kts | 339° |
| 2026-04-25 19:37 | 33.49008 | -117.95436 | 8565 ft | 286 kts | 339° |
| 2026-04-25 19:38 | 33.50901 | -117.96153 | 8170 ft | 285 kts | 339° |
| 2026-04-25 19:38 | 33.52777 | -117.96863 | 7835 ft | 282 kts | 339° |
| 2026-04-25 19:38 | 33.54641 | -117.97569 | 7477 ft | 280 kts | 340° |
| 2026-04-25 19:38 | 33.56489 | -117.98268 | 7132 ft | 278 kts | 340° |
| 2026-04-25 19:39 | 33.58320 | -117.98961 | 6786 ft | 275 kts | 340° |
| 2026-04-25 19:39 | 33.60140 | -117.99651 | 6464 ft | 273 kts | 340° |
| 2026-04-25 19:39 | 33.61945 | -118.00336 | 6077 ft | 271 kts | 340° |
| 2026-04-25 19:39 | 33.63738 | -118.01015 | 5659 ft | 272 kts | 340° |
| 2026-04-25 19:40 | 33.65552 | -118.01704 | 5243 ft | 272 kts | 340° |
| 2026-04-25 19:40 | 33.67338 | -118.02382 | 5030 ft | 271 kts | 340° |
| 2026-04-25 19:40 | 33.69137 | -118.03065 | 4977 ft | 276 kts | 341° |
| 2026-04-25 19:40 | 33.70963 | -118.03757 | 4962 ft | 274 kts | 341° |
| 2026-04-25 19:41 | 33.72781 | -118.04447 | 4973 ft | 273 kts | 341° |
| 2026-04-25 19:41 | 33.74597 | -118.05137 | 4970 ft | 274 kts | 341° |
| 2026-04-25 19:41 | 33.76412 | -118.05827 | 4962 ft | 269 kts | 341° |
| 2026-04-25 19:41 | 33.77010 | -118.06054 | 4973 ft | 264 kts | 341° |
| 2026-04-25 19:42 | 33.79778 | -118.07104 | 4971 ft | 238 kts | 341° |
| 2026-04-25 19:42 | 33.81306 | -118.07684 | 4962 ft | 222 kts | 341° |
| 2026-04-25 19:42 | 33.82728 | -118.08226 | 4973 ft | 207 kts | 341° |
| 2026-04-25 19:42 | 33.84023 | -118.08718 | 4960 ft | 189 kts | 341° |
| 2026-04-25 19:43 | 33.85252 | -118.09188 | 5001 ft | 187 kts | 341° |
| 2026-04-25 19:43 | 33.86505 | -118.09667 | 4993 ft | 189 kts | 341° |
| 2026-04-25 19:43 | 33.87755 | -118.10145 | 4988 ft | 185 kts | 341° |
| 2026-04-25 19:43 | 33.88905 | -118.10589 | 4992 ft | 165 kts | 338° |
| 2026-04-25 19:44 | 33.89900 | -118.11237 | 4921 ft | 162 kts | 323° |
| 2026-04-25 19:44 | 33.90824 | -118.12011 | 4650 ft | 163 kts | 324° |
| 2026-04-25 19:44 | 33.91772 | -118.12792 | 4305 ft | 166 kts | 324° |
| 2026-04-25 19:44 | 33.92730 | -118.13572 | 4032 ft | 166 kts | 324° |
| 2026-04-25 19:45 | 33.93684 | -118.14347 | 3767 ft | 166 kts | 324° |
| 2026-04-25 19:45 | 33.94629 | -118.15113 | 3604 ft | 159 kts | 324° |
| 2026-04-25 19:45 | 33.95428 | -118.15958 | 3581 ft | 148 kts | 301° |
| 2026-04-25 19:45 | 33.95783 | -118.17089 | 3525 ft | 144 kts | 273° |
| 2026-04-25 19:46 | 33.95789 | -118.18282 | 3378 ft | 143 kts | 260° |
| 2026-04-25 19:46 | 33.95660 | -118.19465 | 3198 ft | 140 kts | 257° |
| 2026-04-25 19:46 | 33.95536 | -118.20623 | 3007 ft | 140 kts | 258° |
| 2026-04-25 19:46 | 33.95418 | -118.21779 | 2835 ft | 137 kts | 258° |
| 2026-04-25 19:47 | 33.95302 | -118.22917 | 2642 ft | 138 kts | 258° |
| 2026-04-25 19:47 | 33.95185 | -118.24060 | 2478 ft | 136 kts | 259° |
| 2026-04-25 19:47 | 33.95071 | -118.25186 | 2281 ft | 134 kts | 258° |
| 2026-04-25 19:47 | 33.94957 | -118.26293 | 2115 ft | 135 kts | 258° |
| 2026-04-25 19:48 | 33.94842 | -118.27416 | 1924 ft | 136 kts | 258° |
| 2026-04-25 19:48 | 33.94741 | -118.28526 | 1758 ft | 132 kts | 259° |
| 2026-04-25 19:48 | 33.94639 | -118.29637 | 1546 ft | 135 kts | 259° |
| 2026-04-25 19:48 | 33.94515 | -118.30747 | 1403 ft | 135 kts | 259° |
| 2026-04-25 19:49 | 33.94397 | -118.31861 | 1195 ft | 135 kts | 261° |
| 2026-04-25 19:49 | 33.94366 | -118.32242 | 1129 ft | 135 kts | 260° |
| 2026-04-25 19:49 | 33.94194 | -118.34039 | 850 ft | 134 kts | 259° |
| 2026-04-25 19:49 | 33.94082 | -118.35198 | 670 ft | 135 kts | 259° |
| 2026-04-25 19:50 | 33.93832 | -118.37425 | 299 ft | 134 kts | 259° |
| 2026-04-25 19:50 | 33.93717 | -118.38509 | 149 ft | 128 kts | 258° |
| 2026-04-25 19:50 | 33.93623 | -118.39318 | 121 ft | 36 kts | 264° |
| 2026-04-25 19:51 | 33.93616 | -118.39430 | 125 ft | 19 kts | 268° |
| 2026-04-25 19:51 | 33.93588 | -118.39641 | 125 ft | 27 kts | 255° |
| 2026-04-25 19:51 | 33.93627 | -118.39840 | 123 ft | 25 kts | 282° |
| 2026-04-25 19:51 | 33.93664 | -118.40049 | 122 ft | 26 kts | 270° |
| 2026-04-25 19:52 | 33.93644 | -118.40263 | 125 ft | 26 kts | 269° |
| 2026-04-25 19:52 | 33.93661 | -118.40347 | 124 ft | 0 kts | 292° |
| 2026-04-25 19:52 | 33.93662 | -118.40349 | 125 ft | 2 kts | 292° |
| 2026-04-25 19:53 | 33.93726 | -118.40400 | 124 ft | 23 kts | 346° |
| 2026-04-25 19:53 | 33.93822 | -118.40414 | 124 ft | 6 kts | 37° |
| 2026-04-25 19:53 | 33.93866 | -118.40301 | 125 ft | 19 kts | 39° |
| 2026-04-25 19:53 | 33.93964 | -118.40340 | 121 ft | 8 kts | 312° |
| 2026-04-25 19:54 | 33.93985 | -118.40370 | 122 ft | 0 kts | 309° |